Time;durP1;ratioP1;P1;durP2;ratioP2;P2;SDS_P1;SDS_P2;PMS_P1;PMS_P2;Temp;Humidity;BMP_temperature;BMP_pressure;BME280_temperature;BME280_humidity;BME280_pressure;Samples;Min_cycle;Max_cycle;Signal;HPM_P1;HPM_P2
2021/05/12 00:01:41;;;;;;;26.27;16.65;;;16.00;99.90;;;;;;4963423;28;20379;-72
2021/05/12 00:04:07;;;;;;;22.85;15.10;;;16.00;99.90;;;;;;4961869;28;20069;-72
2021/05/12 00:06:32;;;;;;;25.63;14.15;;;16.10;99.90;;;;;;4960827;28;20023;-72
2021/05/12 00:08:58;;;;;;;19.92;12.65;;;16.00;99.90;;;;;;4963439;28;20020;-72
2021/05/12 00:11:24;;;;;;;20.13;13.00;;;16.00;99.90;;;;;;4964181;28;20492;-72
2021/05/12 00:13:50;;;;;;;24.73;13.10;;;16.00;99.90;;;;;;4958806;28;20486;-72
2021/05/12 00:16:17;;;;;;;27.92;13.13;;;16.00;99.90;;;;;;4957507;28;20051;-72
2021/05/12 00:18:45;;;;;;;28.17;13.43;;;16.00;99.90;;;;;;4967549;28;20034;-72
2021/05/12 00:21:15;;;;;;;24.65;12.35;;;16.00;99.90;;;;;;4964040;28;20114;-72
2021/05/12 00:23:57;;;;;;;21.50;11.85;;;16.00;99.90;;;;;;4965448;28;20046;-72
2021/05/12 00:26:22;;;;;;;20.47;11.83;;;16.00;99.90;;;;;;4975309;28;20027;-72
2021/05/12 00:28:48;;;;;;;19.55;11.95;;;15.90;99.90;;;;;;4975567;28;20388;-71
2021/05/12 00:31:13;;;;;;;20.17;11.55;;;16.00;99.90;;;;;;4975695;28;20037;-71
2021/05/12 00:33:39;;;;;;;19.38;11.32;;;15.90;99.90;;;;;;4963622;28;20039;-72
2021/05/12 00:36:05;;;;;;;20.48;10.88;;;15.90;99.90;;;;;;4964192;28;20019;-73
2021/05/12 00:38:31;;;;;;;22.20;11.02;;;15.90;99.90;;;;;;4965604;28;20145;-72
2021/05/12 00:40:57;;;;;;;21.25;11.43;;;15.90;99.90;;;;;;4961149;28;20106;-72
2021/05/12 00:43:22;;;;;;;21.73;11.18;;;15.90;99.90;;;;;;4964764;28;20087;-72
2021/05/12 00:45:48;;;;;;;17.45;10.38;;;15.90;99.90;;;;;;4965087;28;20031;-72
2021/05/12 00:48:14;;;;;;;20.10;11.30;;;15.80;99.90;;;;;;4964396;28;20090;-72
2021/05/12 00:50:40;;;;;;;19.63;11.65;;;15.80;99.90;;;;;;4957843;28;20031;-72
2021/05/12 00:53:07;;;;;;;22.30;11.48;;;15.80;99.90;;;;;;4963319;28;20400;-72
2021/05/12 00:55:33;;;;;;;23.08;11.15;;;15.80;99.90;;;;;;4960916;28;20509;-72
2021/05/12 00:57:59;;;;;;;18.27;12.40;;;15.80;99.90;;;;;;4959715;28;20027;-72
2021/05/12 01:00:28;;;;;;;19.00;12.90;;;15.70;99.90;;;;;;4963432;28;20050;-73
2021/05/12 01:02:55;;;;;;;21.20;12.55;;;15.70;99.90;;;;;;4962487;28;20032;-72
2021/05/12 01:05:35;;;;;;;21.23;13.18;;;15.70;99.90;;;;;;4964919;28;20023;-72
2021/05/12 01:08:05;;;;;;;27.15;14.80;;;15.70;99.90;;;;;;4957937;28;20023;-72
2021/05/12 01:10:32;;;;;;;25.90;13.77;;;15.70;99.90;;;;;;4965280;28;20088;-72
2021/05/12 01:12:58;;;;;;;25.75;16.27;;;15.60;99.90;;;;;;4960527;28;20531;-72
2021/05/12 01:15:25;;;;;;;23.27;15.98;;;15.70;99.90;;;;;;4964941;28;20031;-72
2021/05/12 01:17:51;;;;;;;29.30;18.60;;;15.60;99.90;;;;;;4955819;28;20042;-72
2021/05/12 01:20:16;;;;;;;27.85;18.00;;;15.60;99.90;;;;;;4965416;28;20036;-72
2021/05/12 01:22:42;;;;;;;31.65;18.00;;;15.70;99.90;;;;;;4964646;28;20479;-72
2021/05/12 01:25:10;;;;;;;30.80;19.35;;;15.70;99.90;;;;;;4961912;28;20027;-72
2021/05/12 01:27:36;;;;;;;32.95;19.15;;;15.70;99.90;;;;;;4961777;28;20523;-72
2021/05/12 01:30:04;;;;;;;28.98;18.95;;;15.60;99.90;;;;;;4962713;28;20066;-72
2021/05/12 01:32:34;;;;;;;28.23;18.88;;;15.60;99.90;;;;;;4963990;28;20031;-72
2021/05/12 01:35:09;;;;;;;29.63;19.48;;;15.60;99.90;;;;;;4963077;28;20035;-72
2021/05/12 01:37:35;;;;;;;31.60;18.88;;;15.60;99.90;;;;;;4960985;28;20050;-72
2021/05/12 01:40:06;;;;;;;32.28;20.58;;;15.60;99.90;;;;;;4967257;28;20021;-72
2021/05/12 01:42:32;;;;;;;33.63;22.30;;;15.60;99.90;;;;;;4967453;28;20062;-72
2021/05/12 01:45:08;;;;;;;28.80;21.17;;;15.60;99.90;;;;;;4961983;28;20050;-72
2021/05/12 01:47:35;;;;;;;33.88;22.58;;;15.60;99.90;;;;;;4960973;28;20368;-72
2021/05/12 01:50:07;;;;;;;46.00;24.83;;;15.50;99.90;;;;;;4959094;28;20031;-72
2021/05/12 01:52:44;;;;;;;37.25;25.05;;;15.50;99.90;;;;;;4963922;28;20126;-72
2021/05/12 01:55:11;;;;;;;41.53;24.08;;;15.50;99.90;;;;;;4961648;28;20019;-72
2021/05/12 01:57:41;;;;;;;37.92;24.70;;;15.50;99.90;;;;;;4962900;28;20035;-72
2021/05/12 02:00:37;;;;;;;39.67;25.60;;;15.50;99.90;;;;;;4965690;28;20081;-72
2021/05/12 02:03:05;;;;;;;30.17;19.23;;;15.50;99.90;;;;;;4958106;28;20031;-72
2021/05/12 02:05:31;;;;;;;37.13;23.70;;;15.50;99.90;;;;;;4964212;28;20055;-72
2021/05/12 02:08:00;;;;;;;32.58;22.30;;;15.40;99.90;;;;;;4958175;28;20044;-72
2021/05/12 02:10:26;;;;;;;35.00;23.10;;;15.30;99.90;;;;;;4960834;28;20019;-72
2021/05/12 02:12:54;;;;;;;35.72;22.98;;;15.40;99.90;;;;;;4959201;28;20039;-72
2021/05/12 02:15:19;;;;;;;34.63;23.08;;;15.40;99.90;;;;;;4960034;28;20624;-72
2021/05/12 02:17:45;;;;;;;33.22;23.05;;;15.30;99.90;;;;;;4962944;28;20038;-72
2021/05/12 02:20:14;;;;;;;32.53;22.10;;;15.20;99.90;;;;;;4965485;28;20487;-72
2021/05/12 02:22:40;;;;;;;36.13;23.17;;;15.10;99.90;;;;;;4965653;28;20074;-72
2021/05/12 02:25:08;;;;;;;34.65;22.60;;;15.00;99.90;;;;;;4958468;28;20035;-72
2021/05/12 02:27:34;;;;;;;33.75;20.67;;;14.90;99.90;;;;;;4961147;28;20164;-72
2021/05/12 02:30:02;;;;;;;27.67;21.60;;;14.90;99.90;;;;;;4961131;28;20064;-72
2021/05/12 02:32:29;;;;;;;31.65;19.40;;;14.90;99.90;;;;;;4960339;28;20115;-72
2021/05/12 02:34:55;;;;;;;34.88;19.95;;;14.90;99.90;;;;;;4968877;28;20041;-72
2021/05/12 02:37:22;;;;;;;26.23;19.02;;;14.90;99.90;;;;;;4961209;28;20120;-72
2021/05/12 02:39:48;;;;;;;26.80;19.42;;;14.90;99.90;;;;;;4962269;28;20027;-72
2021/05/12 02:42:13;;;;;;;27.98;17.27;;;15.00;99.90;;;;;;4971907;28;20034;-72
2021/05/12 02:44:39;;;;;;;25.55;16.30;;;14.90;99.90;;;;;;4979865;28;20073;-72
2021/05/12 02:47:05;;;;;;;33.53;19.75;;;14.90;99.90;;;;;;4974886;28;20031;-72
2021/05/12 02:49:30;;;;;;;30.13;18.40;;;14.90;99.90;;;;;;4977559;28;20029;-72
2021/05/12 02:51:58;;;;;;;27.25;19.27;;;14.90;99.90;;;;;;4975838;28;20070;-73
2021/05/12 02:54:23;;;;;;;33.10;18.30;;;14.70;99.90;;;;;;4975538;28;20155;-72
2021/05/12 02:56:49;;;;;;;28.55;18.40;;;14.70;99.90;;;;;;4971213;28;20058;-72
2021/05/12 02:59:15;;;;;;;23.83;17.85;;;14.60;99.90;;;;;;4968653;28;20038;-72
2021/05/12 03:01:40;;;;;;;26.42;18.00;;;14.50;99.90;;;;;;4970433;28;20022;-72
2021/05/12 03:04:06;;;;;;;31.35;19.38;;;14.40;99.90;;;;;;4961279;28;20525;-72
2021/05/12 03:06:32;;;;;;;23.98;17.13;;;14.30;99.90;;;;;;4971087;28;20045;-72
2021/05/12 03:08:57;;;;;;;26.88;17.63;;;14.20;99.90;;;;;;4975072;28;20034;-72
2021/05/12 03:11:23;;;;;;;27.55;18.10;;;14.10;99.90;;;;;;4977028;28;20034;-72
2021/05/12 03:13:49;;;;;;;27.90;19.52;;;13.90;99.90;;;;;;4974210;28;20034;-72
2021/05/12 03:16:15;;;;;;;23.08;18.83;;;14.00;99.90;;;;;;4958958;28;20369;-72
2021/05/12 03:18:40;;;;;;;25.73;17.70;;;14.00;99.90;;;;;;4974871;28;20038;-72
2021/05/12 03:21:06;;;;;;;29.30;17.77;;;14.10;99.90;;;;;;4965006;28;20035;-72
2021/05/12 03:23:32;;;;;;;23.90;16.02;;;14.10;99.90;;;;;;4972819;28;20030;-72
2021/05/12 03:25:58;;;;;;;24.35;17.70;;;14.20;99.90;;;;;;4974501;28;20023;-72
2021/05/12 03:28:23;;;;;;;27.33;17.00;;;14.20;99.90;;;;;;4972080;28;20475;-72
2021/05/12 03:30:49;;;;;;;29.10;17.70;;;14.10;99.90;;;;;;4974635;28;20022;-72
2021/05/12 03:33:15;;;;;;;25.75;17.65;;;14.10;99.90;;;;;;4963277;28;20049;-72
2021/05/12 03:35:41;;;;;;;26.85;19.05;;;14.10;99.90;;;;;;4967149;28;20027;-72
2021/05/12 03:38:09;;;;;;;24.23;18.42;;;14.10;99.90;;;;;;4964062;28;20114;-72
2021/05/12 03:40:35;;;;;;;24.00;17.30;;;14.10;99.90;;;;;;4965833;28;20030;-71
2021/05/12 03:43:01;;;;;;;23.42;16.55;;;14.20;99.90;;;;;;4974628;28;20031;-72
2021/05/12 03:45:28;;;;;;;25.20;16.48;;;14.10;99.90;;;;;;4970525;28;20509;-72
2021/05/12 03:47:54;;;;;;;25.95;17.70;;;14.20;99.90;;;;;;4962856;28;20505;-72
2021/05/12 03:50:22;;;;;;;25.23;16.05;;;14.10;99.90;;;;;;4970187;28;20018;-72
2021/05/12 03:52:48;;;;;;;25.83;17.15;;;14.20;99.90;;;;;;4972134;28;20110;-72
2021/05/12 03:55:15;;;;;;;25.30;17.55;;;14.10;99.90;;;;;;4970864;28;20019;-72
2021/05/12 03:57:41;;;;;;;25.33;17.52;;;14.20;99.90;;;;;;4967335;28;20081;-72
2021/05/12 04:00:08;;;;;;;22.25;16.50;;;14.10;99.90;;;;;;4967640;28;20439;-73
2021/05/12 04:02:33;;;;;;;26.77;16.95;;;14.10;99.90;;;;;;4977240;28;20113;-72
2021/05/12 04:04:59;;;;;;;25.48;16.92;;;14.10;99.90;;;;;;4972742;28;20105;-72
2021/05/12 04:07:24;;;;;;;28.40;18.42;;;14.10;99.90;;;;;;4973006;28;20391;-72
2021/05/12 04:09:50;;;;;;;22.75;16.13;;;14.10;99.90;;;;;;4968744;28;20102;-72
2021/05/12 04:12:16;;;;;;;26.17;19.00;;;14.10;99.90;;;;;;4972971;28;20039;-72
2021/05/12 04:14:41;;;;;;;24.48;16.85;;;14.10;99.90;;;;;;4973422;28;20023;-72
2021/05/12 04:17:07;;;;;;;25.42;17.33;;;14.10;99.90;;;;;;4969052;28;20113;-72
2021/05/12 04:19:32;;;;;;;21.40;16.23;;;13.90;99.90;;;;;;4974530;28;20081;-71
2021/05/12 04:21:58;;;;;;;21.52;15.63;;;13.70;99.90;;;;;;4970338;28;20554;-72
2021/05/12 04:24:24;;;;;;;21.33;15.75;;;13.60;99.90;;;;;;4975529;28;20061;-73
2021/05/12 04:26:51;;;;;;;21.75;16.02;;;13.60;99.90;;;;;;4974704;28;20030;-72
2021/05/12 04:29:17;;;;;;;19.40;14.70;;;13.50;99.90;;;;;;4976701;28;20026;-72
2021/05/12 04:31:43;;;;;;;24.58;15.32;;;13.50;99.90;;;;;;4966010;28;20447;-72
2021/05/12 04:34:08;;;;;;;25.20;15.45;;;13.40;99.90;;;;;;4967864;28;20073;-72
2021/05/12 04:36:34;;;;;;;20.52;15.68;;;13.40;99.90;;;;;;4972974;28;20513;-72
2021/05/12 04:39:00;;;;;;;22.75;14.75;;;13.30;99.90;;;;;;4969349;28;20038;-72
2021/05/12 04:41:26;;;;;;;22.05;14.20;;;13.30;99.90;;;;;;4965945;28;20403;-72
2021/05/12 04:43:54;;;;;;;18.58;13.13;;;13.20;99.90;;;;;;4975046;28;20106;-72
2021/05/12 04:46:20;;;;;;;24.05;15.07;;;13.10;99.90;;;;;;4970021;28;20037;-72
2021/05/12 04:48:46;;;;;;;24.15;14.95;;;13.00;99.90;;;;;;4970968;28;20475;-72
2021/05/12 04:51:12;;;;;;;20.55;13.80;;;13.10;99.90;;;;;;4971840;28;20034;-72
2021/05/12 04:53:37;;;;;;;20.50;13.75;;;13.10;99.90;;;;;;4963927;28;20042;-72
2021/05/12 04:56:03;;;;;;;23.67;13.98;;;13.20;99.90;;;;;;4968532;28;20042;-72
2021/05/12 04:58:30;;;;;;;22.75;12.90;;;13.20;99.90;;;;;;4974300;28;20646;-72
2021/05/12 05:00:56;;;;;;;22.85;13.50;;;13.40;99.90;;;;;;4981390;28;20034;-72
2021/05/12 05:03:22;;;;;;;23.98;14.70;;;13.50;99.90;;;;;;4965957;28;20544;-72
2021/05/12 05:05:48;;;;;;;22.52;14.77;;;13.50;99.90;;;;;;4967761;28;20031;-72
2021/05/12 05:08:14;;;;;;;20.90;15.23;;;13.70;99.90;;;;;;4969377;28;20054;-72
2021/05/12 05:10:40;;;;;;;19.20;14.45;;;13.70;99.90;;;;;;4972275;28;20035;-72
2021/05/12 05:13:05;;;;;;;22.83;14.52;;;13.80;99.90;;;;;;4965665;28;20047;-73
2021/05/12 05:15:32;;;;;;;23.38;14.82;;;13.90;99.90;;;;;;4966579;28;20030;-69
2021/05/12 05:17:58;;;;;;;18.17;12.85;;;14.00;99.90;;;;;;4961914;28;20047;-71
2021/05/12 05:20:25;;;;;;;23.10;13.18;;;14.00;99.90;;;;;;4965577;28;20059;-71
2021/05/12 05:22:51;;;;;;;19.38;12.57;;;14.10;99.90;;;;;;4962250;28;20030;-72
2021/05/12 05:25:17;;;;;;;21.65;13.70;;;14.20;99.90;;;;;;4958331;28;20103;-73
2021/05/12 05:27:42;;;;;;;17.60;13.30;;;14.10;99.90;;;;;;4967017;28;20405;-72
2021/05/12 05:30:09;;;;;;;21.75;14.27;;;14.20;99.90;;;;;;4971989;28;20030;-72
2021/05/12 05:32:34;;;;;;;25.02;13.88;;;14.20;99.90;;;;;;4968376;28;20089;-72
2021/05/12 05:35:00;;;;;;;22.00;14.13;;;14.30;99.90;;;;;;4968500;28;20027;-72
2021/05/12 05:37:26;;;;;;;27.77;15.52;;;14.20;99.90;;;;;;4963145;28;20031;-72
2021/05/12 05:39:52;;;;;;;24.73;13.63;;;14.30;99.90;;;;;;4975895;28;20106;-72
2021/05/12 05:42:18;;;;;;;32.65;17.80;;;14.40;99.90;;;;;;4976000;28;20057;-72
2021/05/12 05:44:44;;;;;;;25.92;18.02;;;14.50;99.90;;;;;;4967311;28;20066;-72
2021/05/12 05:47:09;;;;;;;19.92;12.38;;;14.50;99.90;;;;;;4959860;28;20027;-72
2021/05/12 05:49:35;;;;;;;20.45;13.98;;;14.50;99.90;;;;;;4960310;28;20043;-72
2021/05/12 05:52:03;;;;;;;22.90;14.52;;;14.60;99.90;;;;;;4967591;28;20031;-72
2021/05/12 05:54:29;;;;;;;19.85;13.40;;;14.70;99.90;;;;;;4967188;28;20093;-73
2021/05/12 05:56:54;;;;;;;23.88;14.05;;;14.70;99.90;;;;;;4964506;28;20024;-72
2021/05/12 05:59:20;;;;;;;20.38;13.23;;;14.70;99.90;;;;;;4963296;28;20035;-72
2021/05/12 06:01:47;;;;;;;20.95;14.18;;;14.70;99.90;;;;;;4963247;28;20543;-73
2021/05/12 06:04:13;;;;;;;25.33;14.07;;;14.70;99.90;;;;;;4958327;28;20031;-72
2021/05/12 06:06:38;;;;;;;21.27;13.35;;;14.60;99.90;;;;;;4968463;28;20033;-72
2021/05/12 06:09:04;;;;;;;19.05;13.68;;;14.70;99.90;;;;;;4962766;28;20073;-73
2021/05/12 06:11:30;;;;;;;21.13;12.43;;;14.70;99.90;;;;;;4965922;28;20031;-72
2021/05/12 06:13:56;;;;;;;13.93;9.60;;;14.70;99.90;;;;;;4964623;28;20510;-73
2021/05/12 06:16:22;;;;;;;19.88;12.38;;;14.60;99.90;;;;;;4958181;28;20065;-72
2021/05/12 06:18:51;;;;;;;21.48;12.60;;;14.70;99.90;;;;;;4966977;28;20485;-73
2021/05/12 06:21:16;;;;;;;19.77;12.43;;;14.90;99.90;;;;;;4957294;28;20032;-73
2021/05/12 06:23:42;;;;;;;20.13;12.75;;;14.90;99.90;;;;;;4964816;28;20030;-72
2021/05/12 06:26:16;;;;;;;17.20;12.95;;;15.00;99.90;;;;;;4967514;28;20082;-72
2021/05/12 06:28:43;;;;;;;17.75;12.63;;;15.00;99.90;;;;;;4968383;28;20023;-74
2021/05/12 06:31:10;;;;;;;19.08;12.80;;;15.00;99.90;;;;;;4966681;28;20037;-72
2021/05/12 06:33:38;;;;;;;23.00;14.50;;;15.20;99.90;;;;;;4967133;28;20031;-72
2021/05/12 06:36:04;;;;;;;17.48;12.40;;;15.20;99.90;;;;;;4964869;28;20349;-71
2021/05/12 06:38:30;;;;;;;17.48;11.15;;;15.20;99.90;;;;;;4969674;28;20059;-71
2021/05/12 06:40:56;;;;;;;17.65;9.98;;;15.30;99.90;;;;;;4965565;28;20073;-72
2021/05/12 06:43:21;;;;;;;17.00;11.10;;;15.40;99.90;;;;;;4969351;28;20384;-72
2021/05/12 06:45:47;;;;;;;14.70;9.23;;;15.50;99.90;;;;;;4957154;28;20058;-72
2021/05/12 06:48:13;;;;;;;15.85;9.82;;;15.70;99.90;;;;;;4960615;28;20582;-72
2021/05/12 06:50:38;;;;;;;16.40;9.05;;;15.80;99.90;;;;;;4972760;28;20027;-72
2021/05/12 06:53:04;;;;;;;17.02;8.00;;;16.00;99.90;;;;;;4962339;28;20046;-76
2021/05/12 06:55:30;;;;;;;16.38;8.65;;;16.20;99.90;;;;;;4958949;28;20139;-72
2021/05/12 06:57:56;;;;;;;17.98;9.63;;;16.20;99.90;;;;;;4957925;28;20114;-72
2021/05/12 07:00:22;;;;;;;16.45;9.82;;;16.40;99.90;;;;;;4970004;28;20058;-72
2021/05/12 07:02:48;;;;;;;18.98;10.18;;;16.50;99.90;;;;;;4960571;28;20054;-72
2021/05/12 07:05:15;;;;;;;19.00;9.13;;;16.50;99.90;;;;;;4966549;28;20066;-72
2021/05/12 07:07:44;;;;;;;22.58;9.82;;;16.70;99.90;;;;;;4965540;28;20060;-72
2021/05/12 07:10:11;;;;;;;19.77;10.10;;;16.60;99.90;;;;;;4968530;28;20101;-73
2021/05/12 07:12:37;;;;;;;21.15;11.00;;;16.60;99.90;;;;;;4977536;28;20450;-73
2021/05/12 07:15:09;;;;;;;16.75;9.43;;;16.70;99.90;;;;;;4976085;28;20023;-73
2021/05/12 07:17:35;;;;;;;16.95;9.60;;;16.80;99.90;;;;;;4965282;28;20439;-73
2021/05/12 07:20:01;;;;;;;19.17;11.15;;;16.90;99.90;;;;;;4972674;28;20058;-73
2021/05/12 07:22:26;;;;;;;21.50;11.25;;;17.10;99.90;;;;;;4974121;28;20026;-72
2021/05/12 07:24:52;;;;;;;17.95;10.85;;;17.00;99.90;;;;;;4973870;28;20406;-72
2021/05/12 07:27:19;;;;;;;20.73;11.98;;;17.20;99.90;;;;;;4967198;28;20221;-71
2021/05/12 07:29:45;;;;;;;19.08;11.48;;;17.20;99.90;;;;;;4953009;28;20030;-72
2021/05/12 07:32:11;;;;;;;17.88;10.40;;;17.30;99.90;;;;;;4967749;28;20034;-72
2021/05/12 07:34:37;;;;;;;15.63;10.48;;;17.30;99.90;;;;;;4970459;28;20045;-71
2021/05/12 07:37:03;;;;;;;17.83;11.63;;;17.20;99.90;;;;;;4969730;28;20502;-72
2021/05/12 07:39:31;;;;;;;19.38;10.90;;;17.20;99.90;;;;;;4969200;28;20026;-72
2021/05/12 07:42:01;;;;;;;18.02;10.18;;;17.20;99.90;;;;;;4975423;28;20027;-72
2021/05/12 07:44:27;;;;;;;22.30;10.07;;;17.20;99.90;;;;;;4969684;28;20031;-72
2021/05/12 07:46:52;;;;;;;11.45;6.35;;;17.20;99.90;;;;;;4965862;28;20084;-72
2021/05/12 07:49:19;;;;;;;14.75;7.00;;;17.10;99.90;;;;;;4964053;28;20031;-72
2021/05/12 07:51:44;;;;;;;11.73;5.93;;;17.10;99.90;;;;;;4970909;28;20062;-73
2021/05/12 07:54:10;;;;;;;12.20;5.50;;;16.90;99.90;;;;;;4970652;28;20607;-72
2021/05/12 07:56:36;;;;;;;10.90;5.63;;;16.90;99.90;;;;;;4961434;28;20534;-72
2021/05/12 07:59:02;;;;;;;12.82;6.68;;;16.90;99.90;;;;;;4965956;28;20391;-73
2021/05/12 08:01:34;;;;;;;13.35;5.45;;;17.00;99.90;;;;;;4963051;28;20027;-72
2021/05/12 08:04:00;;;;;;;10.70;6.18;;;17.10;99.90;;;;;;4965189;28;20372;-72
2021/05/12 08:06:26;;;;;;;17.38;6.32;;;17.00;99.90;;;;;;4972268;28;20518;-73
2021/05/12 08:08:51;;;;;;;13.98;7.65;;;17.10;99.90;;;;;;4980584;28;20070;-73
2021/05/12 08:11:20;;;;;;;18.77;7.50;;;17.00;99.90;;;;;;4966391;28;20030;-72
2021/05/12 08:13:46;;;;;;;15.20;6.50;;;17.00;99.90;;;;;;4961663;28;20176;-72
2021/05/12 08:16:12;;;;;;;16.48;6.70;;;17.10;99.90;;;;;;4960848;28;20106;-73
2021/05/12 08:18:38;;;;;;;10.10;5.90;;;17.10;99.90;;;;;;4966705;28;20031;-73
2021/05/12 08:21:05;;;;;;;10.05;6.07;;;17.20;99.90;;;;;;4966469;28;20055;-73
2021/05/12 08:23:31;;;;;;;14.60;6.05;;;17.20;99.90;;;;;;4969687;28;20120;-74
2021/05/12 08:25:57;;;;;;;9.10;5.22;;;17.30;99.90;;;;;;4965570;28;20483;-72
2021/05/12 08:28:23;;;;;;;9.35;4.05;;;17.40;99.90;;;;;;4969202;28;20033;-75
2021/05/12 08:30:49;;;;;;;14.85;4.00;;;17.60;99.90;;;;;;4971345;28;20059;-73
2021/05/12 08:33:16;;;;;;;8.93;3.53;;;17.70;99.90;;;;;;4967559;28;20066;-73
2021/05/12 08:35:44;;;;;;;11.35;3.70;;;17.70;99.90;;;;;;4967009;28;20115;-73
2021/05/12 08:38:24;;;;;;;8.70;2.92;;;17.80;99.90;;;;;;4966186;28;20035;-74
2021/05/12 08:40:50;;;;;;;7.55;2.97;;;17.90;99.90;;;;;;4961023;28;20018;-73
2021/05/12 08:43:16;;;;;;;6.25;3.10;;;18.00;99.90;;;;;;4970257;28;20866;-73
2021/05/12 08:45:46;;;;;;;7.10;2.72;;;18.10;99.90;;;;;;4970590;28;20109;-74
2021/05/12 08:48:16;;;;;;;9.18;2.85;;;18.10;99.90;;;;;;4964526;28;20032;-74
2021/05/12 08:50:44;;;;;;;6.82;4.20;;;18.20;99.90;;;;;;4971218;28;20384;-74
2021/05/12 08:53:10;;;;;;;4.82;1.80;;;18.10;99.90;;;;;;4976043;28;20046;-74
2021/05/12 08:55:35;;;;;;;4.88;1.90;;;18.30;99.90;;;;;;4968654;28;20045;-73
2021/05/12 08:58:02;;;;;;;7.18;1.80;;;18.50;99.90;;;;;;4965658;28;20484;-73
2021/05/12 09:00:28;;;;;;;9.70;3.00;;;18.70;99.90;;;;;;4968700;28;20097;-73
2021/05/12 09:02:54;;;;;;;7.82;2.50;;;19.00;99.90;;;;;;4967501;28;20580;-73
2021/05/12 09:05:20;;;;;;;9.75;2.55;;;19.40;99.90;;;;;;4963046;28;20118;-73
2021/05/12 09:07:47;;;;;;;10.63;2.15;;;19.50;99.90;;;;;;4959459;28;20035;-74
2021/05/12 09:10:14;;;;;;;5.95;2.38;;;19.50;99.90;;;;;;4967126;28;20827;-74
2021/05/12 09:12:46;;;;;;;6.97;2.17;;;19.30;99.90;;;;;;4968340;28;20415;-74
2021/05/12 09:15:18;;;;;;;11.30;2.88;;;19.00;99.80;;;;;;4959878;28;20038;-74
2021/05/12 09:17:45;;;;;;;8.77;2.13;;;18.90;99.90;;;;;;4961115;28;20122;-74
2021/05/12 09:20:33;;;;;;;6.68;2.00;;;18.80;99.90;;;;;;4965920;28;20030;-74
2021/05/12 09:22:59;;;;;;;9.85;2.30;;;18.70;99.90;;;;;;4971003;28;20382;-74
2021/05/12 09:25:25;;;;;;;7.05;2.40;;;18.70;99.90;;;;;;4973516;28;20031;-74
2021/05/12 09:27:52;;;;;;;5.55;2.00;;;18.70;99.90;;;;;;4961862;28;20041;-73
2021/05/12 09:30:25;;;;;;;9.55;2.83;;;18.60;99.90;;;;;;4964003;28;20045;-75
2021/05/12 09:32:51;;;;;;;;;;;19.00;99.90;;;;;;4976022;28;20149;-74
2021/05/12 09:35:22;;;;;;;10.27;2.53;;;19.10;99.90;;;;;;4972834;28;19915;-73
2021/05/12 09:37:48;;;;;;;12.50;2.72;;;19.50;99.90;;;;;;4970355;28;20081;-74
2021/05/12 09:40:16;;;;;;;11.85;2.30;;;19.30;99.90;;;;;;4970105;28;20035;-74
2021/05/12 09:42:44;;;;;;;7.13;2.03;;;19.20;99.90;;;;;;4971512;28;20467;-74
2021/05/12 09:45:21;;;;;;;6.88;2.22;;;19.00;99.70;;;;;;4974350;28;20034;-74
2021/05/12 09:47:50;;;;;;;8.50;2.60;;;18.90;99.90;;;;;;4962389;28;20122;-74
2021/05/12 09:50:26;;;;;;;9.57;1.90;;;18.90;99.90;;;;;;4969885;28;20055;-74
2021/05/12 09:52:56;;;;;;;6.57;1.55;;;19.00;99.90;;;;;;4968959;28;20047;-74
2021/05/12 09:55:37;;;;;;;5.13;1.70;;;19.00;98.60;;;;;;4970722;28;20031;-74
2021/05/12 09:58:10;;;;;;;4.93;1.40;;;18.80;97.90;;;;;;4968274;28;20039;-73
2021/05/12 10:00:42;;;;;;;;;;;18.80;98.60;;;;;;4965202;28;20074;-74
2021/05/12 10:03:10;;;;;;;6.25;1.83;;;19.00;98.50;;;;;;4957874;28;19946;-73
2021/05/12 10:05:56;;;;;;;12.63;2.10;;;19.10;99.10;;;;;;4966078;28;20023;-74
2021/05/12 10:08:23;;;;;;;7.68;1.80;;;19.20;98.40;;;;;;4966023;28;20022;-74
2021/05/12 10:11:02;;;;;;;4.32;1.60;;;19.30;99.40;;;;;;4965362;28;20113;-74
2021/05/12 10:13:30;;;;;;;5.65;1.50;;;19.20;99.10;;;;;;4970106;28;20031;-73
2021/05/12 10:15:56;;;;;;;4.63;1.70;;;19.10;98.90;;;;;;4965668;28;20850;-74
2021/05/12 10:18:21;;;;;;;6.63;1.50;;;19.10;98.90;;;;;;4961245;28;20123;-74
2021/05/12 10:20:48;;;;;;;6.55;1.60;;;19.10;98.50;;;;;;4966005;28;20027;-74
2021/05/12 10:23:14;;;;;;;6.75;1.27;;;19.00;98.10;;;;;;4960558;28;20050;-74
2021/05/12 10:25:40;;;;;;;10.07;1.48;;;19.00;99.20;;;;;;4961705;28;21095;-74
2021/05/12 10:28:07;;;;;;;6.32;1.20;;;18.90;97.40;;;;;;4961173;28;20550;-73
2021/05/12 10:30:34;;;;;;;7.40;1.92;;;18.80;97.90;;;;;;4965979;28;20391;-73
2021/05/12 10:33:00;;;;;;;7.90;1.75;;;18.90;98.50;;;;;;4961807;28;20137;-73
2021/05/12 10:35:32;;;;;;;7.53;1.90;;;18.90;98.90;;;;;;4962617;28;20407;-73
2021/05/12 10:37:59;;;;;;;5.20;1.55;;;18.90;98.30;;;;;;4961754;28;20041;-73
2021/05/12 10:40:38;;;;;;;5.53;2.25;;;18.80;98.50;;;;;;4967626;28;20026;-74
2021/05/12 10:43:26;;;;;;;4.78;1.70;;;18.80;98.80;;;;;;4969359;28;20403;-74
2021/05/12 10:45:57;;;;;;;10.15;1.95;;;18.90;99.30;;;;;;4961772;28;20031;-73
2021/05/12 10:48:32;;;;;;;4.65;1.80;;;18.90;98.90;;;;;;4966556;28;20531;-73
2021/05/12 10:50:59;;;;;;;10.30;2.00;;;18.90;99.30;;;;;;4959209;28;20038;-73
2021/05/12 10:53:33;;;;;;;7.07;1.85;;;18.90;99.50;;;;;;4970984;28;20050;-73
2021/05/12 10:55:59;;;;;;;4.40;1.45;;;18.90;99.00;;;;;;4973059;28;20485;-73
2021/05/12 10:58:26;;;;;;;6.20;1.60;;;18.90;98.40;;;;;;4973772;28;20038;-73
2021/05/12 11:01:00;;;;;;;4.68;1.42;;;19.00;98.80;;;;;;4971957;28;20161;-73
2021/05/12 11:03:46;;;;;;;7.55;1.55;;;19.00;98.90;;;;;;4966052;28;20022;-73
2021/05/12 11:06:12;;;;;;;10.27;1.52;;;19.10;97.80;;;;;;4972304;28;20047;-73
2021/05/12 11:09:08;;;;;;;5.75;2.20;;;19.00;98.20;;;;;;4973612;28;20025;-73
2021/05/12 11:11:55;;;;;;;7.22;1.63;;;19.00;97.80;;;;;;4971690;28;20518;-74
2021/05/12 11:14:32;;;;;;;7.65;1.60;;;19.10;98.10;;;;;;4972632;28;20535;-73
2021/05/12 11:17:15;;;;;;;10.52;2.00;;;19.20;97.60;;;;;;4971758;28;20494;-74
2021/05/12 11:20:01;;;;;;;6.53;1.63;;;19.50;98.70;;;;;;4974361;28;20034;-74
2021/05/12 11:32:36;;;;;;;5.15;1.67;;;19.90;97.20;;;;;;4974439;28;20120;-73
2021/05/12 11:35:08;;;;;;;6.15;1.20;;;19.90;96.00;;;;;;4971844;28;20031;-73
2021/05/12 11:37:37;;;;;;;4.35;1.00;;;20.00;97.30;;;;;;4968994;28;20045;-73
2021/05/12 11:40:05;;;;;;;4.18;0.95;;;20.20;96.50;;;;;;4971832;28;20022;-73
2021/05/12 11:42:32;;;;;;;5.32;1.30;;;20.40;94.90;;;;;;4961528;28;20029;-73
2021/05/12 11:45:19;;;;;;;4.68;1.30;;;20.60;95.50;;;;;;4967503;28;20383;-73
2021/05/12 11:47:57;;;;;;;6.65;1.70;;;20.70;95.80;;;;;;4969049;28;20031;-74
2021/05/12 11:50:26;;;;;;;5.55;1.30;;;20.80;95.20;;;;;;4970573;28;20030;-73
2021/05/12 11:52:52;;;;;;;4.25;1.35;;;20.80;95.40;;;;;;4973985;28;20109;-73
2021/05/12 11:55:21;;;;;;;2.55;1.55;;;20.80;94.20;;;;;;4969125;28;20031;-73
2021/05/12 11:57:50;;;;;;;4.07;1.38;;;20.80;94.10;;;;;;4964415;28;20031;-74
2021/05/12 12:00:19;;;;;;;4.68;1.23;;;21.00;93.60;;;;;;4969032;28;20034;-74
2021/05/12 12:03:03;;;;;;;3.90;1.00;;;21.00;94.10;;;;;;4973435;28;20391;-74
2021/05/12 12:06:03;;;;;;;7.43;1.60;;;21.20;93.30;;;;;;4972355;28;20027;-74
2021/05/12 12:08:22;;;;;;;5.07;1.08;;;21.30;92.10;;;;;;4970547;28;20035;-74
2021/05/12 12:10:47;;;;;;;3.78;1.45;;;21.40;93.20;;;;;;4971858;28;20022;-74
2021/05/12 12:13:15;;;;;;;4.22;1.20;;;21.50;93.30;;;;;;4973165;28;20046;-74
2021/05/12 12:15:43;;;;;;;5.88;1.17;;;21.70;94.90;;;;;;4957724;28;20058;-74
2021/05/12 12:18:08;;;;;;;4.93;1.33;;;21.70;93.10;;;;;;4969072;28;20034;-74
2021/05/12 12:20:35;;;;;;;2.67;1.13;;;21.80;91.90;;;;;;4975826;28;20482;-73
2021/05/12 12:23:02;;;;;;;5.35;1.20;;;21.70;90.60;;;;;;4971349;28;20033;-74
2021/05/12 12:25:41;;;;;;;5.03;1.10;;;21.50;91.10;;;;;;4969288;28;20035;-73
2021/05/12 12:28:07;;;;;;;4.45;1.98;;;21.40;90.80;;;;;;4964495;28;20030;-73
2021/05/12 12:30:33;;;;;;;3.58;1.50;;;21.20;91.30;;;;;;4971043;28;20026;-74
2021/05/12 12:32:58;;;;;;;8.45;1.83;;;21.10;90.40;;;;;;4971877;28;20053;-74
2021/05/12 12:35:24;;;;;;;5.38;1.65;;;21.30;91.80;;;;;;4965071;28;20312;-74
2021/05/12 12:37:49;;;;;;;4.93;1.38;;;21.50;90.70;;;;;;4959382;28;20032;-74
2021/05/12 12:40:15;;;;;;;7.10;1.38;;;21.60;90.20;;;;;;4960253;28;20481;-75
2021/05/12 12:42:51;;;;;;;4.60;1.17;;;21.50;90.10;;;;;;4968882;28;20030;-73
2021/05/12 12:45:31;;;;;;;4.60;1.27;;;21.70;90.50;;;;;;4962072;28;20076;-75
2021/05/12 12:47:58;;;;;;;4.63;1.17;;;21.70;90.30;;;;;;4961297;28;20380;-76
2021/05/12 12:50:42;;;;;;;4.70;1.60;;;21.60;90.40;;;;;;4956767;28;20038;-74